Terminal Aerodrome Forecast
Issued by NWS Grand Forks, ND

Home | Current Version | Previous Version | Graphics & Text | Print | Product List | Glossary On
Versions: 1 2 3 4 5 6 7 8 9 10 11 12 13 14 15 16 17 18 19 20 21 22 23 24 25
025
FTUS43 KFGF 142335
TAFFAR
TAF
KFAR 142335Z 1500/1524 32006KT 5SM -SN BR OVC025
     FM150100 VRB05KT P6SM OVC025
     FM151400 VRB03KT P6SM -SN OVC015
     FM152100 17006KT 3SM -SN OVC025=

USA.gov is the U.S. government's official web portal to all federal, state and local government web resources and services.